Terminal Aerodrome Forecast
Issued by NWS Grand Forks, ND

Home | Current Version | Previous Version | Text Only | Print | Product List | Glossary On
Versions: 1 2 3 4 5 6 7 8 9 10 11 12 13 14 15 16 17 18 19
374
FTUS43 KFGF 171739
TAFGFK
TAF
KGFK 171739Z 1718/1818 30014G24KT P6SM FEW200
     FM172300 28010KT P6SM FEW250
     FM180400 26004KT P6SM SCT250
     FM180900 09004KT P6SM BKN060
     FM181300 08007KT 2SM -SN BKN020 OVC035=

USA.gov is the U.S. government's official web portal to all federal, state and local government web resources and services.